sensor_id;sensor_type;location;lat;lon;timestamp;P1;durP1;ratioP1;P2;durP2;ratioP2
17848;SDS011;9050;48.746;9.232;2022-07-04T00:01:24;0.10;;;0.10;;
17848;SDS011;9050;48.746;9.232;2022-07-04T00:03:50;0.10;;;0.10;;
17848;SDS011;9050;48.746;9.232;2022-07-04T00:06:17;0.15;;;0.15;;
17848;SDS011;9050;48.746;9.232;2022-07-04T00:08:44;0.10;;;0.10;;
17848;SDS011;9050;48.746;9.232;2022-07-04T00:11:11;0.10;;;0.10;;
17848;SDS011;9050;48.746;9.232;2022-07-04T00:13:40;0.10;;;0.10;;
17848;SDS011;9050;48.746;9.232;2022-07-04T00:16:07;0.10;;;0.10;;
17848;SDS011;9050;48.746;9.232;2022-07-04T00:18:33;0.20;;;0.20;;
17848;SDS011;9050;48.746;9.232;2022-07-04T00:21:00;0.13;;;0.13;;
17848;SDS011;9050;48.746;9.232;2022-07-04T00:23:27;0.13;;;0.13;;
17848;SDS011;9050;48.746;9.232;2022-07-04T00:25:54;0.10;;;0.10;;
17848;SDS011;9050;48.746;9.232;2022-07-04T00:28:21;0.10;;;0.10;;
17848;SDS011;9050;48.746;9.232;2022-07-04T00:30:49;0.10;;;0.10;;
17848;SDS011;9050;48.746;9.232;2022-07-04T00:33:16;0.20;;;0.20;;
17848;SDS011;9050;48.746;9.232;2022-07-04T00:35:42;0.20;;;0.20;;
17848;SDS011;9050;48.746;9.232;2022-07-04T00:38:09;0.20;;;0.20;;
17848;SDS011;9050;48.746;9.232;2022-07-04T00:40:37;0.20;;;0.20;;
17848;SDS011;9050;48.746;9.232;2022-07-04T00:43:04;0.10;;;0.10;;
17848;SDS011;9050;48.746;9.232;2022-07-04T00:45:31;0.20;;;0.20;;
17848;SDS011;9050;48.746;9.232;2022-07-04T00:47:59;0.10;;;0.10;;
17848;SDS011;9050;48.746;9.232;2022-07-04T00:50:26;0.20;;;0.20;;
17848;SDS011;9050;48.746;9.232;2022-07-04T00:52:54;0.20;;;0.20;;
17848;SDS011;9050;48.746;9.232;2022-07-04T00:55:21;0.20;;;0.20;;
17848;SDS011;9050;48.746;9.232;2022-07-04T00:57:48;0.20;;;0.20;;
17848;SDS011;9050;48.746;9.232;2022-07-04T01:00:16;0.20;;;0.20;;
17848;SDS011;9050;48.746;9.232;2022-07-04T01:02:44;0.20;;;0.20;;
17848;SDS011;9050;48.746;9.232;2022-07-04T01:05:13;0.10;;;0.10;;
17848;SDS011;9050;48.746;9.232;2022-07-04T01:07:40;0.10;;;0.10;;
17848;SDS011;9050;48.746;9.232;2022-07-04T01:10:07;0.10;;;0.10;;
17848;SDS011;9050;48.746;9.232;2022-07-04T01:12:34;0.13;;;0.13;;
17848;SDS011;9050;48.746;9.232;2022-07-04T01:15:02;0.10;;;0.10;;
17848;SDS011;9050;48.746;9.232;2022-07-04T01:17:29;0.20;;;0.20;;
17848;SDS011;9050;48.746;9.232;2022-07-04T01:19:56;0.15;;;0.15;;
17848;SDS011;9050;48.746;9.232;2022-07-04T01:22:24;0.20;;;0.20;;
17848;SDS011;9050;48.746;9.232;2022-07-04T01:24:51;0.20;;;0.20;;
17848;SDS011;9050;48.746;9.232;2022-07-04T01:27:18;0.15;;;0.15;;
17848;SDS011;9050;48.746;9.232;2022-07-04T01:29:45;0.20;;;0.20;;
17848;SDS011;9050;48.746;9.232;2022-07-04T01:32:12;0.20;;;0.20;;
17848;SDS011;9050;48.746;9.232;2022-07-04T01:34:39;0.20;;;0.20;;
17848;SDS011;9050;48.746;9.232;2022-07-04T01:37:06;0.20;;;0.20;;
17848;SDS011;9050;48.746;9.232;2022-07-04T01:39:35;0.20;;;0.20;;
17848;SDS011;9050;48.746;9.232;2022-07-04T01:42:02;0.20;;;0.20;;
17848;SDS011;9050;48.746;9.232;2022-07-04T01:44:29;0.20;;;0.20;;
17848;SDS011;9050;48.746;9.232;2022-07-04T01:46:56;0.10;;;0.10;;
17848;SDS011;9050;48.746;9.232;2022-07-04T01:49:23;0.20;;;0.20;;
17848;SDS011;9050;48.746;9.232;2022-07-04T01:51:50;0.20;;;0.20;;
17848;SDS011;9050;48.746;9.232;2022-07-04T01:54:17;0.20;;;0.20;;
17848;SDS011;9050;48.746;9.232;2022-07-04T01:56:46;0.20;;;0.20;;
17848;SDS011;9050;48.746;9.232;2022-07-04T01:59:13;0.20;;;0.20;;
17848;SDS011;9050;48.746;9.232;2022-07-04T02:01:39;0.20;;;0.20;;
17848;SDS011;9050;48.746;9.232;2022-07-04T02:04:06;0.20;;;0.20;;
17848;SDS011;9050;48.746;9.232;2022-07-04T02:06:33;0.20;;;0.20;;
17848;SDS011;9050;48.746;9.232;2022-07-04T02:09:01;0.20;;;0.20;;
17848;SDS011;9050;48.746;9.232;2022-07-04T02:11:45;0.20;;;0.20;;
17848;SDS011;9050;48.746;9.232;2022-07-04T02:14:31;0.20;;;0.20;;
17848;SDS011;9050;48.746;9.232;2022-07-04T02:16:58;0.20;;;0.20;;
17848;SDS011;9050;48.746;9.232;2022-07-04T02:19:25;0.20;;;0.20;;
17848;SDS011;9050;48.746;9.232;2022-07-04T02:21:53;0.20;;;0.20;;
17848;SDS011;9050;48.746;9.232;2022-07-04T02:24:20;0.20;;;0.20;;
17848;SDS011;9050;48.746;9.232;2022-07-04T02:26:48;0.20;;;0.20;;
17848;SDS011;9050;48.746;9.232;2022-07-04T02:29:15;0.20;;;0.20;;
17848;SDS011;9050;48.746;9.232;2022-07-04T02:31:42;0.20;;;0.20;;
17848;SDS011;9050;48.746;9.232;2022-07-04T02:34:09;0.20;;;0.20;;
17848;SDS011;9050;48.746;9.232;2022-07-04T02:36:37;0.20;;;0.20;;
17848;SDS011;9050;48.746;9.232;2022-07-04T02:39:04;0.20;;;0.20;;
17848;SDS011;9050;48.746;9.232;2022-07-04T02:41:32;0.20;;;0.20;;
17848;SDS011;9050;48.746;9.232;2022-07-04T02:44:00;0.30;;;0.30;;
17848;SDS011;9050;48.746;9.232;2022-07-04T02:46:27;0.20;;;0.20;;
17848;SDS011;9050;48.746;9.232;2022-07-04T02:48:57;0.20;;;0.20;;
17848;SDS011;9050;48.746;9.232;2022-07-04T02:51:24;0.30;;;0.30;;
17848;SDS011;9050;48.746;9.232;2022-07-04T02:53:51;0.25;;;0.25;;
17848;SDS011;9050;48.746;9.232;2022-07-04T02:56:18;0.20;;;0.20;;
17848;SDS011;9050;48.746;9.232;2022-07-04T02:58:45;0.20;;;0.20;;
17848;SDS011;9050;48.746;9.232;2022-07-04T03:01:13;0.20;;;0.20;;
17848;SDS011;9050;48.746;9.232;2022-07-04T03:03:40;0.22;;;0.22;;
17848;SDS011;9050;48.746;9.232;2022-07-04T03:06:07;0.20;;;0.20;;
17848;SDS011;9050;48.746;9.232;2022-07-04T03:08:35;0.20;;;0.20;;
17848;SDS011;9050;48.746;9.232;2022-07-04T03:11:03;0.20;;;0.20;;
17848;SDS011;9050;48.746;9.232;2022-07-04T03:13:31;0.20;;;0.20;;
17848;SDS011;9050;48.746;9.232;2022-07-04T03:15:58;0.20;;;0.20;;
17848;SDS011;9050;48.746;9.232;2022-07-04T03:18:27;0.30;;;0.30;;
17848;SDS011;9050;48.746;9.232;2022-07-04T03:20:53;0.20;;;0.20;;
17848;SDS011;9050;48.746;9.232;2022-07-04T03:23:20;0.20;;;0.20;;
17848;SDS011;9050;48.746;9.232;2022-07-04T03:25:47;0.20;;;0.20;;
17848;SDS011;9050;48.746;9.232;2022-07-04T03:28:14;0.20;;;0.20;;
17848;SDS011;9050;48.746;9.232;2022-07-04T03:30:41;0.20;;;0.20;;
17848;SDS011;9050;48.746;9.232;2022-07-04T03:33:08;0.30;;;0.30;;
17848;SDS011;9050;48.746;9.232;2022-07-04T03:35:36;0.20;;;0.20;;
17848;SDS011;9050;48.746;9.232;2022-07-04T03:38:03;0.20;;;0.20;;
17848;SDS011;9050;48.746;9.232;2022-07-04T03:40:30;0.28;;;0.28;;
17848;SDS011;9050;48.746;9.232;2022-07-04T03:42:57;0.22;;;0.22;;
17848;SDS011;9050;48.746;9.232;2022-07-04T03:45:24;0.20;;;0.20;;
17848;SDS011;9050;48.746;9.232;2022-07-04T03:47:51;0.20;;;0.20;;
17848;SDS011;9050;48.746;9.232;2022-07-04T03:50:18;0.20;;;0.20;;
17848;SDS011;9050;48.746;9.232;2022-07-04T03:52:47;0.20;;;0.20;;
17848;SDS011;9050;48.746;9.232;2022-07-04T03:55:14;0.20;;;0.20;;
17848;SDS011;9050;48.746;9.232;2022-07-04T03:57:41;0.30;;;0.30;;
17848;SDS011;9050;48.746;9.232;2022-07-04T04:00:08;0.20;;;0.20;;
17848;SDS011;9050;48.746;9.232;2022-07-04T04:02:36;0.10;;;0.10;;
17848;SDS011;9050;48.746;9.232;2022-07-04T04:05:04;0.20;;;0.20;;
17848;SDS011;9050;48.746;9.232;2022-07-04T04:07:51;0.13;;;0.13;;
17848;SDS011;9050;48.746;9.232;2022-07-04T04:10:18;0.20;;;0.20;;
17848;SDS011;9050;48.746;9.232;2022-07-04T04:12:45;0.20;;;0.20;;
17848;SDS011;9050;48.746;9.232;2022-07-04T04:15:12;0.20;;;0.20;;
17848;SDS011;9050;48.746;9.232;2022-07-04T04:17:39;0.20;;;0.20;;
17848;SDS011;9050;48.746;9.232;2022-07-04T04:20:06;0.20;;;0.20;;
17848;SDS011;9050;48.746;9.232;2022-07-04T04:22:34;0.30;;;0.30;;
17848;SDS011;9050;48.746;9.232;2022-07-04T04:25:02;0.30;;;0.30;;
17848;SDS011;9050;48.746;9.232;2022-07-04T04:27:30;0.20;;;0.20;;
17848;SDS011;9050;48.746;9.232;2022-07-04T04:29:56;0.30;;;0.30;;
17848;SDS011;9050;48.746;9.232;2022-07-04T04:32:23;0.30;;;0.30;;
17848;SDS011;9050;48.746;9.232;2022-07-04T04:34:50;0.20;;;0.20;;
17848;SDS011;9050;48.746;9.232;2022-07-04T04:37:17;0.13;;;0.13;;
17848;SDS011;9050;48.746;9.232;2022-07-04T04:39:44;0.20;;;0.20;;
17848;SDS011;9050;48.746;9.232;2022-07-04T04:42:12;0.22;;;0.22;;
17848;SDS011;9050;48.746;9.232;2022-07-04T04:44:39;0.30;;;0.30;;
17848;SDS011;9050;48.746;9.232;2022-07-04T04:47:05;0.20;;;0.20;;
17848;SDS011;9050;48.746;9.232;2022-07-04T04:49:32;0.20;;;0.20;;
17848;SDS011;9050;48.746;9.232;2022-07-04T04:51:59;0.20;;;0.20;;
17848;SDS011;9050;48.746;9.232;2022-07-04T04:54:26;0.20;;;0.20;;
17848;SDS011;9050;48.746;9.232;2022-07-04T04:56:53;0.20;;;0.20;;
17848;SDS011;9050;48.746;9.232;2022-07-04T04:59:21;0.20;;;0.20;;
17848;SDS011;9050;48.746;9.232;2022-07-04T05:01:48;0.20;;;0.20;;
17848;SDS011;9050;48.746;9.232;2022-07-04T05:04:15;0.20;;;0.20;;
17848;SDS011;9050;48.746;9.232;2022-07-04T05:06:42;0.20;;;0.20;;
17848;SDS011;9050;48.746;9.232;2022-07-04T05:09:09;0.20;;;0.20;;
17848;SDS011;9050;48.746;9.232;2022-07-04T05:11:36;0.20;;;0.20;;
17848;SDS011;9050;48.746;9.232;2022-07-04T05:14:03;0.10;;;0.10;;
17848;SDS011;9050;48.746;9.232;2022-07-04T05:16:31;0.20;;;0.20;;
17848;SDS011;9050;48.746;9.232;2022-07-04T05:18:58;0.20;;;0.20;;
17848;SDS011;9050;48.746;9.232;2022-07-04T05:21:25;0.20;;;0.20;;
17848;SDS011;9050;48.746;9.232;2022-07-04T05:23:53;0.20;;;0.20;;
17848;SDS011;9050;48.746;9.232;2022-07-04T05:26:20;0.20;;;0.20;;
17848;SDS011;9050;48.746;9.232;2022-07-04T05:28:47;0.20;;;0.20;;
17848;SDS011;9050;48.746;9.232;2022-07-04T05:31:14;0.20;;;0.20;;
17848;SDS011;9050;48.746;9.232;2022-07-04T05:33:42;0.20;;;0.20;;
17848;SDS011;9050;48.746;9.232;2022-07-04T05:36:09;0.20;;;0.20;;
17848;SDS011;9050;48.746;9.232;2022-07-04T05:38:36;0.20;;;0.20;;
17848;SDS011;9050;48.746;9.232;2022-07-04T05:41:03;0.10;;;0.10;;
17848;SDS011;9050;48.746;9.232;2022-07-04T05:43:30;0.10;;;0.10;;
17848;SDS011;9050;48.746;9.232;2022-07-04T05:45:56;0.15;;;0.15;;
17848;SDS011;9050;48.746;9.232;2022-07-04T05:48:24;0.00;;;0.00;;
17848;SDS011;9050;48.746;9.232;2022-07-04T05:50:52;0.10;;;0.10;;
17848;SDS011;9050;48.746;9.232;2022-07-04T05:53:19;0.00;;;0.00;;
17848;SDS011;9050;48.746;9.232;2022-07-04T05:55:45;0.00;;;0.00;;
17848;SDS011;9050;48.746;9.232;2022-07-04T05:58:12;0.00;;;0.00;;
17848;SDS011;9050;48.746;9.232;2022-07-04T06:00:41;0.00;;;0.00;;
17848;SDS011;9050;48.746;9.232;2022-07-04T06:03:08;0.00;;;0.00;;
17848;SDS011;9050;48.746;9.232;2022-07-04T06:05:34;0.00;;;0.00;;
17848;SDS011;9050;48.746;9.232;2022-07-04T06:08:03;0.00;;;0.00;;
17848;SDS011;9050;48.746;9.232;2022-07-04T06:10:30;0.00;;;0.00;;
17848;SDS011;9050;48.746;9.232;2022-07-04T06:12:58;0.00;;;0.00;;
17848;SDS011;9050;48.746;9.232;2022-07-04T06:15:25;0.00;;;0.00;;
17848;SDS011;9050;48.746;9.232;2022-07-04T06:17:52;0.00;;;0.00;;
17848;SDS011;9050;48.746;9.232;2022-07-04T06:20:19;0.00;;;0.00;;
17848;SDS011;9050;48.746;9.232;2022-07-04T06:22:46;0.00;;;0.00;;
17848;SDS011;9050;48.746;9.232;2022-07-04T06:25:17;0.00;;;0.00;;
17848;SDS011;9050;48.746;9.232;2022-07-04T06:27:46;0.00;;;0.00;;
17848;SDS011;9050;48.746;9.232;2022-07-04T06:30:14;0.00;;;0.00;;
17848;SDS011;9050;48.746;9.232;2022-07-04T06:32:42;0.00;;;0.00;;
17848;SDS011;9050;48.746;9.232;2022-07-04T06:35:10;0.00;;;0.00;;
17848;SDS011;9050;48.746;9.232;2022-07-04T06:37:55;0.00;;;0.00;;
17848;SDS011;9050;48.746;9.232;2022-07-04T06:40:23;0.00;;;0.00;;
17848;SDS011;9050;48.746;9.232;2022-07-04T06:42:50;0.00;;;0.00;;
17848;SDS011;9050;48.746;9.232;2022-07-04T06:45:17;0.00;;;0.00;;
17848;SDS011;9050;48.746;9.232;2022-07-04T06:47:44;0.00;;;0.00;;
17848;SDS011;9050;48.746;9.232;2022-07-04T06:50:11;0.00;;;0.00;;
17848;SDS011;9050;48.746;9.232;2022-07-04T06:52:38;0.00;;;0.00;;
17848;SDS011;9050;48.746;9.232;2022-07-04T06:55:05;0.00;;;0.00;;
17848;SDS011;9050;48.746;9.232;2022-07-04T06:57:35;0.00;;;0.00;;
17848;SDS011;9050;48.746;9.232;2022-07-04T07:00:02;0.00;;;0.00;;
17848;SDS011;9050;48.746;9.232;2022-07-04T07:02:30;0.00;;;0.00;;
17848;SDS011;9050;48.746;9.232;2022-07-04T07:04:59;0.00;;;0.00;;
17848;SDS011;9050;48.746;9.232;2022-07-04T07:07:26;0.00;;;0.00;;
17848;SDS011;9050;48.746;9.232;2022-07-04T07:09:53;0.00;;;0.00;;
17848;SDS011;9050;48.746;9.232;2022-07-04T07:12:22;0.00;;;0.00;;
17848;SDS011;9050;48.746;9.232;2022-07-04T07:14:50;0.00;;;0.00;;
17848;SDS011;9050;48.746;9.232;2022-07-04T07:17:17;0.00;;;0.00;;
17848;SDS011;9050;48.746;9.232;2022-07-04T07:19:44;0.00;;;0.00;;
17848;SDS011;9050;48.746;9.232;2022-07-04T07:22:12;0.00;;;0.00;;
17848;SDS011;9050;48.746;9.232;2022-07-04T07:24:39;0.00;;;0.00;;
17848;SDS011;9050;48.746;9.232;2022-07-04T07:27:06;0.00;;;0.00;;
17848;SDS011;9050;48.746;9.232;2022-07-04T07:29:34;0.00;;;0.00;;
17848;SDS011;9050;48.746;9.232;2022-07-04T07:32:03;0.00;;;0.00;;
17848;SDS011;9050;48.746;9.232;2022-07-04T07:34:30;0.00;;;0.00;;
17848;SDS011;9050;48.746;9.232;2022-07-04T07:36:58;0.00;;;0.00;;
17848;SDS011;9050;48.746;9.232;2022-07-04T07:39:25;0.00;;;0.00;;
17848;SDS011;9050;48.746;9.232;2022-07-04T07:41:52;0.10;;;0.10;;
17848;SDS011;9050;48.746;9.232;2022-07-04T07:44:20;0.00;;;0.00;;
17848;SDS011;9050;48.746;9.232;2022-07-04T07:46:47;0.10;;;0.10;;
17848;SDS011;9050;48.746;9.232;2022-07-04T07:49:15;0.00;;;0.00;;
17848;SDS011;9050;48.746;9.232;2022-07-04T07:51:42;0.00;;;0.00;;
17848;SDS011;9050;48.746;9.232;2022-07-04T07:54:09;0.00;;;0.00;;
17848;SDS011;9050;48.746;9.232;2022-07-04T07:56:36;0.00;;;0.00;;
17848;SDS011;9050;48.746;9.232;2022-07-04T07:59:02;0.00;;;0.00;;
17848;SDS011;9050;48.746;9.232;2022-07-04T08:01:30;0.10;;;0.10;;
17848;SDS011;9050;48.746;9.232;2022-07-04T08:03:56;0.00;;;0.00;;
17848;SDS011;9050;48.746;9.232;2022-07-04T08:06:42;0.00;;;0.00;;
17848;SDS011;9050;48.746;9.232;2022-07-04T08:09:09;0.00;;;0.00;;
17848;SDS011;9050;48.746;9.232;2022-07-04T08:11:36;0.00;;;0.00;;
17848;SDS011;9050;48.746;9.232;2022-07-04T08:14:03;0.00;;;0.00;;
17848;SDS011;9050;48.746;9.232;2022-07-04T08:16:32;0.00;;;0.00;;
17848;SDS011;9050;48.746;9.232;2022-07-04T08:18:59;0.00;;;0.00;;
17848;SDS011;9050;48.746;9.232;2022-07-04T08:21:26;0.10;;;0.10;;
17848;SDS011;9050;48.746;9.232;2022-07-04T08:23:55;0.05;;;0.05;;
17848;SDS011;9050;48.746;9.232;2022-07-04T08:26:22;0.05;;;0.05;;
17848;SDS011;9050;48.746;9.232;2022-07-04T08:28:49;0.00;;;0.00;;
17848;SDS011;9050;48.746;9.232;2022-07-04T08:31:17;0.20;;;0.20;;
17848;SDS011;9050;48.746;9.232;2022-07-04T08:33:44;0.08;;;0.08;;
17848;SDS011;9050;48.746;9.232;2022-07-04T08:36:12;0.10;;;0.10;;
17848;SDS011;9050;48.746;9.232;2022-07-04T08:38:38;0.10;;;0.10;;
17848;SDS011;9050;48.746;9.232;2022-07-04T08:41:07;0.10;;;0.10;;
17848;SDS011;9050;48.746;9.232;2022-07-04T08:43:34;0.10;;;0.10;;
17848;SDS011;9050;48.746;9.232;2022-07-04T08:46:02;0.10;;;0.10;;
17848;SDS011;9050;48.746;9.232;2022-07-04T08:48:31;0.10;;;0.10;;
17848;SDS011;9050;48.746;9.232;2022-07-04T08:51:00;0.00;;;0.00;;
17848;SDS011;9050;48.746;9.232;2022-07-04T08:53:35;0.03;;;0.03;;
17848;SDS011;9050;48.746;9.232;2022-07-04T08:56:05;0.08;;;0.08;;
17848;SDS011;9050;48.746;9.232;2022-07-04T08:58:51;0.00;;;0.00;;
17848;SDS011;9050;48.746;9.232;2022-07-04T09:01:20;0.00;;;0.00;;
17848;SDS011;9050;48.746;9.232;2022-07-04T09:03:48;0.00;;;0.00;;
17848;SDS011;9050;48.746;9.232;2022-07-04T09:06:16;0.00;;;0.00;;
17848;SDS011;9050;48.746;9.232;2022-07-04T09:08:44;0.00;;;0.00;;
17848;SDS011;9050;48.746;9.232;2022-07-04T09:11:12;0.00;;;0.00;;
17848;SDS011;9050;48.746;9.232;2022-07-04T09:13:39;0.10;;;0.10;;
17848;SDS011;9050;48.746;9.232;2022-07-04T09:16:06;0.10;;;0.10;;
17848;SDS011;9050;48.746;9.232;2022-07-04T09:18:34;0.00;;;0.00;;
17848;SDS011;9050;48.746;9.232;2022-07-04T09:21:02;0.00;;;0.00;;
17848;SDS011;9050;48.746;9.232;2022-07-04T09:23:31;0.00;;;0.00;;
17848;SDS011;9050;48.746;9.232;2022-07-04T09:26:09;0.00;;;0.00;;
17848;SDS011;9050;48.746;9.232;2022-07-04T09:28:40;0.08;;;0.08;;
17848;SDS011;9050;48.746;9.232;2022-07-04T09:31:15;0.00;;;0.00;;
17848;SDS011;9050;48.746;9.232;2022-07-04T09:33:44;0.00;;;0.00;;
17848;SDS011;9050;48.746;9.232;2022-07-04T09:36:20;0.00;;;0.00;;
17848;SDS011;9050;48.746;9.232;2022-07-04T09:39:03;0.00;;;0.00;;
17848;SDS011;9050;48.746;9.232;2022-07-04T09:41:50;0.05;;;0.05;;
17848;SDS011;9050;48.746;9.232;2022-07-04T09:44:22;0.00;;;0.00;;
17848;SDS011;9050;48.746;9.232;2022-07-04T09:46:50;0.00;;;0.00;;
17848;SDS011;9050;48.746;9.232;2022-07-04T09:49:18;0.10;;;0.10;;
17848;SDS011;9050;48.746;9.232;2022-07-04T09:51:45;0.10;;;0.10;;
17848;SDS011;9050;48.746;9.232;2022-07-04T09:54:14;0.00;;;0.00;;
17848;SDS011;9050;48.746;9.232;2022-07-04T09:56:47;0.00;;;0.00;;
17848;SDS011;9050;48.746;9.232;2022-07-04T09:59:19;0.00;;;0.00;;
17848;SDS011;9050;48.746;9.232;2022-07-04T10:01:47;0.00;;;0.00;;
17848;SDS011;9050;48.746;9.232;2022-07-04T10:04:14;0.00;;;0.00;;
17848;SDS011;9050;48.746;9.232;2022-07-04T10:06:42;0.00;;;0.00;;
17848;SDS011;9050;48.746;9.232;2022-07-04T10:09:10;0.00;;;0.00;;
17848;SDS011;9050;48.746;9.232;2022-07-04T10:11:39;0.08;;;0.08;;
17848;SDS011;9050;48.746;9.232;2022-07-04T10:14:08;0.00;;;0.00;;
17848;SDS011;9050;48.746;9.232;2022-07-04T10:16:37;0.00;;;0.00;;
17848;SDS011;9050;48.746;9.232;2022-07-04T10:19:04;0.10;;;0.10;;
17848;SDS011;9050;48.746;9.232;2022-07-04T10:21:32;0.10;;;0.10;;
17848;SDS011;9050;48.746;9.232;2022-07-04T10:23:59;0.10;;;0.10;;
17848;SDS011;9050;48.746;9.232;2022-07-04T10:26:28;0.00;;;0.00;;
17848;SDS011;9050;48.746;9.232;2022-07-04T10:28:56;0.00;;;0.00;;
17848;SDS011;9050;48.746;9.232;2022-07-04T10:31:25;0.08;;;0.08;;
17848;SDS011;9050;48.746;9.232;2022-07-04T10:33:55;0.10;;;0.10;;
17848;SDS011;9050;48.746;9.232;2022-07-04T10:36:24;0.10;;;0.10;;
17848;SDS011;9050;48.746;9.232;2022-07-04T10:38:55;0.10;;;0.10;;
17848;SDS011;9050;48.746;9.232;2022-07-04T10:41:23;0.00;;;0.00;;
17848;SDS011;9050;48.746;9.232;2022-07-04T10:43:56;0.03;;;0.03;;
17848;SDS011;9050;48.746;9.232;2022-07-04T10:46:36;0.00;;;0.00;;
17848;SDS011;9050;48.746;9.232;2022-07-04T10:49:16;0.10;;;0.10;;
17848;SDS011;9050;48.746;9.232;2022-07-04T10:51:49;0.10;;;0.10;;
17848;SDS011;9050;48.746;9.232;2022-07-04T10:54:17;0.00;;;0.00;;
17848;SDS011;9050;48.746;9.232;2022-07-04T10:56:46;0.10;;;0.10;;
17848;SDS011;9050;48.746;9.232;2022-07-04T10:59:19;0.10;;;0.10;;
17848;SDS011;9050;48.746;9.232;2022-07-04T11:04:55;0.03;;;0.03;;
17848;SDS011;9050;48.746;9.232;2022-07-04T11:10:23;0.10;;;0.10;;
17848;SDS011;9050;48.746;9.232;2022-07-04T11:13:07;0.10;;;0.10;;
17848;SDS011;9050;48.746;9.232;2022-07-04T11:18:33;0.00;;;0.00;;
17848;SDS011;9050;48.746;9.232;2022-07-04T11:21:18;0.10;;;0.10;;
17848;SDS011;9050;48.746;9.232;2022-07-04T11:23:50;0.00;;;0.00;;
17848;SDS011;9050;48.746;9.232;2022-07-04T11:26:19;0.00;;;0.00;;
17848;SDS011;9050;48.746;9.232;2022-07-04T11:28:46;0.00;;;0.00;;
17848;SDS011;9050;48.746;9.232;2022-07-04T11:31:14;0.00;;;0.00;;
17848;SDS011;9050;48.746;9.232;2022-07-04T11:33:42;0.00;;;0.00;;
17848;SDS011;9050;48.746;9.232;2022-07-04T11:36:11;0.10;;;0.10;;
17848;SDS011;9050;48.746;9.232;2022-07-04T11:38:43;0.00;;;0.00;;
17848;SDS011;9050;48.746;9.232;2022-07-04T11:41:11;0.10;;;0.10;;
17848;SDS011;9050;48.746;9.232;2022-07-04T11:43:55;0.00;;;0.00;;
17848;SDS011;9050;48.746;9.232;2022-07-04T11:46:39;0.00;;;0.00;;
17848;SDS011;9050;48.746;9.232;2022-07-04T11:49:08;0.00;;;0.00;;
17848;SDS011;9050;48.746;9.232;2022-07-04T11:51:40;0.00;;;0.00;;
17848;SDS011;9050;48.746;9.232;2022-07-04T11:54:08;0.00;;;0.00;;
17848;SDS011;9050;48.746;9.232;2022-07-04T11:56:35;0.00;;;0.00;;
17848;SDS011;9050;48.746;9.232;2022-07-04T11:59:08;0.00;;;0.00;;
17848;SDS011;9050;48.746;9.232;2022-07-04T12:01:37;0.00;;;0.00;;
17848;SDS011;9050;48.746;9.232;2022-07-04T12:04:13;0.00;;;0.00;;
17848;SDS011;9050;48.746;9.232;2022-07-04T12:06:42;0.10;;;0.10;;
17848;SDS011;9050;48.746;9.232;2022-07-04T12:09:10;0.03;;;0.03;;
17848;SDS011;9050;48.746;9.232;2022-07-04T12:11:49;0.00;;;0.00;;
17848;SDS011;9050;48.746;9.232;2022-07-04T12:14:17;0.00;;;0.00;;
17848;SDS011;9050;48.746;9.232;2022-07-04T12:16:44;0.00;;;0.00;;
17848;SDS011;9050;48.746;9.232;2022-07-04T12:19:13;0.08;;;0.08;;
17848;SDS011;9050;48.746;9.232;2022-07-04T12:21:41;0.00;;;0.00;;
17848;SDS011;9050;48.746;9.232;2022-07-04T12:24:10;0.08;;;0.08;;
17848;SDS011;9050;48.746;9.232;2022-07-04T12:26:46;0.03;;;0.03;;
17848;SDS011;9050;48.746;9.232;2022-07-04T12:29:20;0.10;;;0.10;;
17848;SDS011;9050;48.746;9.232;2022-07-04T12:31:50;0.00;;;0.00;;
17848;SDS011;9050;48.746;9.232;2022-07-04T12:34:20;0.10;;;0.10;;
17848;SDS011;9050;48.746;9.232;2022-07-04T12:36:47;0.00;;;0.00;;
17848;SDS011;9050;48.746;9.232;2022-07-04T12:39:26;0.00;;;0.00;;
17848;SDS011;9050;48.746;9.232;2022-07-04T12:42:03;0.00;;;0.00;;
17848;SDS011;9050;48.746;9.232;2022-07-04T12:44:31;0.00;;;0.00;;
17848;SDS011;9050;48.746;9.232;2022-07-04T12:46:58;0.00;;;0.00;;
17848;SDS011;9050;48.746;9.232;2022-07-04T12:49:26;0.00;;;0.00;;
17848;SDS011;9050;48.746;9.232;2022-07-04T12:52:02;0.00;;;0.00;;
17848;SDS011;9050;48.746;9.232;2022-07-04T12:54:30;0.00;;;0.00;;
17848;SDS011;9050;48.746;9.232;2022-07-04T12:57:03;0.00;;;0.00;;
17848;SDS011;9050;48.746;9.232;2022-07-04T12:59:31;0.00;;;0.00;;
17848;SDS011;9050;48.746;9.232;2022-07-04T13:01:58;0.00;;;0.00;;
17848;SDS011;9050;48.746;9.232;2022-07-04T13:04:26;0.00;;;0.00;;
17848;SDS011;9050;48.746;9.232;2022-07-04T13:06:53;0.00;;;0.00;;
17848;SDS011;9050;48.746;9.232;2022-07-04T13:09:21;0.00;;;0.00;;
17848;SDS011;9050;48.746;9.232;2022-07-04T13:11:48;0.00;;;0.00;;
17848;SDS011;9050;48.746;9.232;2022-07-04T13:14:32;0.00;;;0.00;;
17848;SDS011;9050;48.746;9.232;2022-07-04T13:16:59;0.00;;;0.00;;
17848;SDS011;9050;48.746;9.232;2022-07-04T13:19:28;0.00;;;0.00;;
17848;SDS011;9050;48.746;9.232;2022-07-04T13:21:55;0.00;;;0.00;;
17848;SDS011;9050;48.746;9.232;2022-07-04T13:24:22;0.00;;;0.00;;
17848;SDS011;9050;48.746;9.232;2022-07-04T13:26:49;0.00;;;0.00;;
17848;SDS011;9050;48.746;9.232;2022-07-04T13:29:15;0.00;;;0.00;;
17848;SDS011;9050;48.746;9.232;2022-07-04T13:31:42;0.00;;;0.00;;
17848;SDS011;9050;48.746;9.232;2022-07-04T13:34:09;0.00;;;0.00;;
17848;SDS011;9050;48.746;9.232;2022-07-04T13:36:37;0.00;;;0.00;;
17848;SDS011;9050;48.746;9.232;2022-07-04T13:39:05;0.00;;;0.00;;
17848;SDS011;9050;48.746;9.232;2022-07-04T13:41:32;0.00;;;0.00;;
17848;SDS011;9050;48.746;9.232;2022-07-04T13:43:59;0.00;;;0.00;;
17848;SDS011;9050;48.746;9.232;2022-07-04T13:46:27;0.00;;;0.00;;
17848;SDS011;9050;48.746;9.232;2022-07-04T13:48:54;0.00;;;0.00;;
17848;SDS011;9050;48.746;9.232;2022-07-04T13:51:21;0.00;;;0.00;;
17848;SDS011;9050;48.746;9.232;2022-07-04T13:53:49;0.00;;;0.00;;
17848;SDS011;9050;48.746;9.232;2022-07-04T13:56:16;0.00;;;0.00;;
17848;SDS011;9050;48.746;9.232;2022-07-04T13:58:43;0.00;;;0.00;;
17848;SDS011;9050;48.746;9.232;2022-07-04T14:01:10;0.00;;;0.00;;
17848;SDS011;9050;48.746;9.232;2022-07-04T14:03:38;0.00;;;0.00;;
17848;SDS011;9050;48.746;9.232;2022-07-04T14:06:05;0.00;;;0.00;;
17848;SDS011;9050;48.746;9.232;2022-07-04T14:08:32;0.00;;;0.00;;
17848;SDS011;9050;48.746;9.232;2022-07-04T14:11:01;0.00;;;0.00;;
17848;SDS011;9050;48.746;9.232;2022-07-04T14:13:28;0.00;;;0.00;;
17848;SDS011;9050;48.746;9.232;2022-07-04T14:15:55;0.00;;;0.00;;
17848;SDS011;9050;48.746;9.232;2022-07-04T14:18:22;0.00;;;0.00;;
17848;SDS011;9050;48.746;9.232;2022-07-04T14:20:49;0.00;;;0.00;;
17848;SDS011;9050;48.746;9.232;2022-07-04T14:23:16;0.00;;;0.00;;
17848;SDS011;9050;48.746;9.232;2022-07-04T14:26:06;0.00;;;0.00;;
17848;SDS011;9050;48.746;9.232;2022-07-04T14:28:34;0.00;;;0.00;;
17848;SDS011;9050;48.746;9.232;2022-07-04T14:31:01;0.00;;;0.00;;
17848;SDS011;9050;48.746;9.232;2022-07-04T14:33:28;0.00;;;0.00;;
17848;SDS011;9050;48.746;9.232;2022-07-04T14:35:55;0.00;;;0.00;;
17848;SDS011;9050;48.746;9.232;2022-07-04T14:38:22;0.00;;;0.00;;
17848;SDS011;9050;48.746;9.232;2022-07-04T14:40:49;0.00;;;0.00;;
17848;SDS011;9050;48.746;9.232;2022-07-04T14:43:17;0.00;;;0.00;;
17848;SDS011;9050;48.746;9.232;2022-07-04T14:45:44;0.00;;;0.00;;
17848;SDS011;9050;48.746;9.232;2022-07-04T14:48:12;0.00;;;0.00;;
17848;SDS011;9050;48.746;9.232;2022-07-04T14:50:39;0.00;;;0.00;;
17848;SDS011;9050;48.746;9.232;2022-07-04T14:53:06;0.00;;;0.00;;
17848;SDS011;9050;48.746;9.232;2022-07-04T14:55:33;0.00;;;0.00;;
17848;SDS011;9050;48.746;9.232;2022-07-04T14:58:00;0.00;;;0.00;;
17848;SDS011;9050;48.746;9.232;2022-07-04T15:00:28;0.00;;;0.00;;
17848;SDS011;9050;48.746;9.232;2022-07-04T15:02:55;0.08;;;0.08;;
17848;SDS011;9050;48.746;9.232;2022-07-04T15:05:22;0.00;;;0.00;;
17848;SDS011;9050;48.746;9.232;2022-07-04T15:07:49;0.00;;;0.00;;
17848;SDS011;9050;48.746;9.232;2022-07-04T15:10:16;0.00;;;0.00;;
17848;SDS011;9050;48.746;9.232;2022-07-04T15:12:44;0.00;;;0.00;;
17848;SDS011;9050;48.746;9.232;2022-07-04T15:15:11;0.00;;;0.00;;
17848;SDS011;9050;48.746;9.232;2022-07-04T15:17:40;0.00;;;0.00;;